createdAt,value
2019-04-10T00:00:37.291Z,12.78
2019-04-10T00:01:44.595Z,11.55
2019-04-10T00:02:50.741Z,11.35
2019-04-10T00:03:55.204Z,12.35
2019-04-10T00:04:59.671Z,12.35
2019-04-10T00:06:06.753Z,11.30
2019-04-10T00:07:15.106Z,12.65
2019-04-10T00:08:17.850Z,12.63
2019-04-10T00:09:25.952Z,12.20
2019-04-10T00:10:30.414Z,12.03
2019-04-10T00:11:35.235Z,12.53
2019-04-10T00:12:40.453Z,12.68
2019-04-10T00:13:46.971Z,11.78
2019-04-10T00:14:52.575Z,11.65
2019-04-10T00:15:57.120Z,12.50
2019-04-10T00:17:02.664Z,11.53
2019-04-10T00:18:09.412Z,11.55
2019-04-10T00:19:15.915Z,12.58
2019-04-10T00:20:20.458Z,12.30
2019-04-10T00:21:25.202Z,12.43
2019-04-10T00:22:30.505Z,12.00
2019-04-10T00:23:35.290Z,12.13
2019-04-10T00:24:39.932Z,12.00
2019-04-10T00:25:45.348Z,11.90
2019-04-10T00:26:50.839Z,12.35
2019-04-10T00:27:55.376Z,12.30
2019-04-10T00:29:00.249Z,11.97
2019-04-10T00:30:07.091Z,12.33
2019-04-10T00:31:11.633Z,12.73
2019-04-10T00:32:16.207Z,11.88
2019-04-10T00:33:20.838Z,11.95
2019-04-10T00:34:25.449Z,12.47
2019-04-10T00:35:29.925Z,12.75
2019-04-10T00:36:35.237Z,12.28
2019-04-10T00:37:40.802Z,13.15
2019-04-10T00:38:46.202Z,12.58
2019-04-10T00:39:50.861Z,12.60
2019-04-10T00:40:55.498Z,13.08
2019-04-10T00:42:00.886Z,12.03
2019-04-10T00:43:06.477Z,11.80
2019-04-10T00:44:11.232Z,12.68
2019-04-10T00:45:15.692Z,12.45
2019-04-10T00:46:20.526Z,12.53
2019-04-10T00:47:25.063Z,13.05
2019-04-10T00:48:30.080Z,12.58
2019-04-10T00:49:34.660Z,13.18
2019-04-10T00:50:39.178Z,12.82
2019-04-10T00:51:43.676Z,13.30
2019-04-10T00:52:48.418Z,12.28
2019-04-10T00:53:53.900Z,13.32
2019-04-10T00:54:59.394Z,13.35
2019-04-10T00:56:04.217Z,13.95
2019-04-10T00:57:09.447Z,13.68
2019-04-10T00:58:14.182Z,13.05
2019-04-10T00:59:19.818Z,12.98
2019-04-10T01:00:25.543Z,12.73
2019-04-10T01:01:30.170Z,13.13
2019-04-10T01:02:34.633Z,13.32
2019-04-10T01:03:46.874Z,13.90
2019-04-10T01:04:51.210Z,12.88
2019-04-10T01:05:55.672Z,13.35
2019-04-10T01:07:00.241Z,11.97
2019-04-10T01:08:06.599Z,12.90
2019-04-10T01:09:11.252Z,13.10
2019-04-10T01:10:17.793Z,13.62
2019-04-10T01:11:23.178Z,13.32
2019-04-10T01:12:28.031Z,12.98
2019-04-10T01:13:33.003Z,13.18
2019-04-10T01:14:38.096Z,13.10
2019-04-10T01:15:42.748Z,13.32
2019-04-10T01:16:48.188Z,14.40
2019-04-10T01:17:52.876Z,13.30
2019-04-10T01:18:58.260Z,13.25
2019-04-10T01:20:02.785Z,13.95
2019-04-10T01:21:08.292Z,12.50
2019-04-10T01:22:12.836Z,13.90
2019-04-10T01:23:17.274Z,13.53
2019-04-10T01:24:21.745Z,14.18
2019-04-10T01:25:26.257Z,14.33
2019-04-10T01:26:31.623Z,14.00
2019-04-10T01:27:36.212Z,13.93
2019-04-10T01:28:41.778Z,13.43
2019-04-10T01:29:46.263Z,13.43
2019-04-10T01:30:50.797Z,13.55
2019-04-10T01:31:55.354Z,13.03
2019-04-10T01:33:00.674Z,13.50
2019-04-10T01:34:05.408Z,14.15
2019-04-10T01:35:09.999Z,13.43
2019-04-10T01:36:15.095Z,14.00
2019-04-10T01:37:20.549Z,13.98
2019-04-10T01:38:25.189Z,14.13
2019-04-10T01:39:31.239Z,13.90
2019-04-10T01:40:35.700Z,13.45
2019-04-10T01:41:40.165Z,13.80
2019-04-10T01:42:58.941Z,13.62
2019-04-10T01:43:51.096Z,13.55
2019-04-10T01:44:55.651Z,12.90
2019-04-10T01:46:00.111Z,13.62
2019-04-10T01:47:04.720Z,13.72
2019-04-10T01:48:10.012Z,14.50
2019-04-10T01:49:15.586Z,14.30
2019-04-10T01:50:22.110Z,13.98
2019-04-10T01:51:27.535Z,13.53
2019-04-10T01:52:33.146Z,13.75
2019-04-10T01:53:37.764Z,14.03
2019-04-10T01:54:44.411Z,13.83
2019-04-10T01:55:49.264Z,14.10
2019-04-10T01:56:53.866Z,14.10
2019-04-10T01:58:00.955Z,14.55
2019-04-10T01:59:05.684Z,13.48
2019-04-10T02:00:13.236Z,14.43
2019-04-10T02:01:22.407Z,14.75
2019-04-10T02:02:34.428Z,14.43
2019-04-10T02:03:38.913Z,14.55
2019-04-10T02:04:43.857Z,15.25
2019-04-10T02:05:49.155Z,14.25
2019-04-10T02:06:53.829Z,14.93
2019-04-10T02:08:07.287Z,16.27
2019-04-10T02:09:07.523Z,14.60
2019-04-10T02:10:12.156Z,15.23
2019-04-10T02:11:17.517Z,15.45
2019-04-10T02:12:22.843Z,15.80
2019-04-10T02:13:27.639Z,15.10
2019-04-10T02:14:32.183Z,16.02
2019-04-10T02:15:36.672Z,14.87
2019-04-10T02:16:41.231Z,15.48
2019-04-10T02:17:46.626Z,14.55
2019-04-10T02:18:52.023Z,14.43
2019-04-10T02:19:56.908Z,14.87
2019-04-10T02:21:01.359Z,14.63
2019-04-10T02:22:06.484Z,13.88
2019-04-10T02:23:12.115Z,14.78
2019-04-10T02:24:16.819Z,14.47
2019-04-10T02:25:21.953Z,15.88
2019-04-10T02:26:27.676Z,15.32
2019-04-10T02:27:32.224Z,14.83
2019-04-10T02:28:37.475Z,15.05
2019-04-10T02:29:42.059Z,14.87
2019-04-10T02:30:47.883Z,15.15
2019-04-10T02:31:53.357Z,14.43
2019-04-10T02:32:59.746Z,15.08
2019-04-10T02:34:05.355Z,15.10
2019-04-10T02:35:16.530Z,15.23
2019-04-10T02:36:17.451Z,14.75
2019-04-10T02:37:22.814Z,14.93
2019-04-10T02:38:44.570Z,14.78
2019-04-10T02:39:39.814Z,15.08
2019-04-10T02:40:41.556Z,14.13
2019-04-10T02:41:46.071Z,15.28
2019-04-10T02:42:51.380Z,16.42
2019-04-10T02:43:55.897Z,15.28
2019-04-10T02:45:02.049Z,14.28
2019-04-10T02:46:08.301Z,14.50
2019-04-10T02:47:14.314Z,14.35
2019-04-10T02:48:19.449Z,14.68
2019-04-10T02:49:24.734Z,14.28
2019-04-10T02:50:31.155Z,14.87
2019-04-10T02:51:35.963Z,16.10
2019-04-10T02:52:42.899Z,15.40
2019-04-10T02:53:48.078Z,15.13
2019-04-10T02:54:53.771Z,15.63
2019-04-10T02:56:00.334Z,15.25
2019-04-10T02:57:05.494Z,14.00
2019-04-10T02:58:10.153Z,14.85
2019-04-10T02:59:15.447Z,14.80
2019-04-10T03:00:22.353Z,14.40
2019-04-10T03:01:27.236Z,14.70
2019-04-10T03:02:33.470Z,16.05
2019-04-10T03:03:39.051Z,15.38
2019-04-10T03:04:44.629Z,15.00
2019-04-10T03:05:50.821Z,14.98
2019-04-10T03:06:55.706Z,15.30
2019-04-10T03:08:01.237Z,15.90
2019-04-10T03:09:18.937Z,15.05
2019-04-10T03:10:24.149Z,15.32
2019-04-10T03:11:20.204Z,16.10
2019-04-10T03:12:28.248Z,15.45
2019-04-10T03:13:33.724Z,15.55
2019-04-10T03:14:39.253Z,14.00
2019-04-10T03:15:45.074Z,15.85
2019-04-10T03:16:51.465Z,15.20
2019-04-10T03:17:56.607Z,15.13
2019-04-10T03:19:01.537Z,16.02
2019-04-10T03:20:07.823Z,16.25
2019-04-10T03:21:13.639Z,14.83
2019-04-10T03:22:18.784Z,14.53
2019-04-10T03:23:23.398Z,15.08
2019-04-10T03:24:27.858Z,15.10
2019-04-10T03:25:33.016Z,15.23
2019-04-10T03:26:37.559Z,15.63
2019-04-10T03:27:42.730Z,16.07
2019-04-10T03:28:47.302Z,15.30
2019-04-10T03:29:51.990Z,15.13
2019-04-10T03:30:59.981Z,16.12
2019-04-10T03:32:06.623Z,16.57
2019-04-10T03:33:31.187Z,16.37
2019-04-10T03:34:40.018Z,15.83
2019-04-10T03:35:45.668Z,16.17
2019-04-10T03:36:50.474Z,15.93
2019-04-10T03:37:54.938Z,15.03
2019-04-10T03:39:03.231Z,15.63
2019-04-10T03:40:07.327Z,15.60
2019-04-10T03:41:12.267Z,15.83
2019-04-10T03:42:16.959Z,15.75
2019-04-10T03:43:21.616Z,14.90
2019-04-10T03:44:27.086Z,15.88
2019-04-10T03:45:32.749Z,15.25
2019-04-10T03:46:39.957Z,15.85
2019-04-10T03:47:44.292Z,15.80
2019-04-10T03:48:49.443Z,18.20
2019-04-10T03:49:55.107Z,16.20
2019-04-10T03:51:00.453Z,16.45
2019-04-10T03:52:05.204Z,15.93
2019-04-10T03:53:10.763Z,15.28
2019-04-10T03:54:15.285Z,16.20
2019-04-10T03:55:20.898Z,16.25
2019-04-10T03:56:26.208Z,16.07
2019-04-10T03:57:30.959Z,15.80
2019-04-10T03:58:35.676Z,15.60
2019-04-10T03:59:41.423Z,15.95
2019-04-10T04:00:46.884Z,16.25
2019-04-10T04:01:51.431Z,16.20
2019-04-10T04:02:56.056Z,16.50
2019-04-10T04:04:01.483Z,16.05
2019-04-10T04:05:06.927Z,16.17
2019-04-10T04:06:11.467Z,16.48
2019-04-10T04:07:16.273Z,16.67
2019-04-10T04:08:21.559Z,18.30
2019-04-10T04:09:27.253Z,17.45
2019-04-10T04:10:32.836Z,18.50
2019-04-10T04:11:37.843Z,17.42
2019-04-10T04:12:42.760Z,17.77
2019-04-10T04:13:47.988Z,17.60
2019-04-10T04:14:53.473Z,19.07
2019-04-10T04:15:58.306Z,17.70
2019-04-10T04:17:03.960Z,16.73
2019-04-10T04:18:08.877Z,16.77
2019-04-10T04:19:13.620Z,15.93
2019-04-10T04:20:19.027Z,16.30
2019-04-10T04:21:23.794Z,17.02
2019-04-10T04:22:28.561Z,16.73
2019-04-10T04:23:34.012Z,18.30
2019-04-10T04:24:38.663Z,16.93
2019-04-10T04:25:43.560Z,18.48
2019-04-10T04:26:48.673Z,17.90
2019-04-10T04:27:53.879Z,18.55
2019-04-10T04:28:59.941Z,20.08
2019-04-10T04:30:08.750Z,20.70
2019-04-10T04:31:13.214Z,19.15
2019-04-10T04:32:17.735Z,19.07
2019-04-10T04:33:23.313Z,19.12
2019-04-10T04:34:27.835Z,18.55
2019-04-10T04:35:32.587Z,20.65
2019-04-10T04:36:37.367Z,19.17
2019-04-10T04:37:42.250Z,19.52
2019-04-10T04:38:47.803Z,19.32
2019-04-10T04:39:52.513Z,16.35
2019-04-10T04:40:58.229Z,18.65
2019-04-10T04:42:03.105Z,17.15
2019-04-10T04:43:07.895Z,18.52
2019-04-10T04:44:12.476Z,16.87
2019-04-10T04:45:17.349Z,19.00
2019-04-10T04:46:21.866Z,22.02
2019-04-10T04:47:26.562Z,23.90
2019-04-10T04:48:31.875Z,17.77
2019-04-10T04:49:36.309Z,17.15
2019-04-10T04:50:41.630Z,17.80
2019-04-10T04:51:46.130Z,16.35
2019-04-10T04:52:50.595Z,17.65
2019-04-10T04:53:55.057Z,18.37
2019-04-10T04:54:59.805Z,16.80
2019-04-10T04:56:04.292Z,18.67
2019-04-10T04:57:08.750Z,18.00
2019-04-10T04:58:13.809Z,19.85
2019-04-10T04:59:20.541Z,24.82
2019-04-10T05:00:25.756Z,27.13
2019-04-10T05:01:31.718Z,27.05
2019-04-10T05:02:37.176Z,28.17
2019-04-10T05:03:42.090Z,29.23
2019-04-10T05:04:46.690Z,31.97
2019-04-10T05:05:51.924Z,32.30
2019-04-10T05:06:56.428Z,35.03
2019-04-10T05:08:04.091Z,36.17
2019-04-10T05:09:07.910Z,46.10
2019-04-10T05:10:13.228Z,32.25
2019-04-10T05:11:18.315Z,34.10
2019-04-10T05:12:23.498Z,28.05
2019-04-10T05:13:28.409Z,25.65
2019-04-10T05:14:33.315Z,23.02
2019-04-10T05:15:37.789Z,25.55
2019-04-10T05:16:42.268Z,29.72
2019-04-10T05:17:47.100Z,28.32
2019-04-10T05:18:52.018Z,28.25
2019-04-10T05:19:56.788Z,26.00
2019-04-10T05:21:01.247Z,29.35
2019-04-10T05:22:06.027Z,30.05
2019-04-10T05:23:10.854Z,28.95
2019-04-10T05:24:15.809Z,24.02
2019-04-10T05:25:21.065Z,24.87
2019-04-10T05:26:25.746Z,23.00
2019-04-10T05:27:30.946Z,24.57
2019-04-10T05:28:36.239Z,33.58
2019-04-10T05:29:42.984Z,24.37
2019-04-10T05:30:47.907Z,26.45
2019-04-10T05:31:53.120Z,25.30
2019-04-10T05:32:57.767Z,25.90
2019-04-10T05:34:03.046Z,21.95
2019-04-10T05:35:10.072Z,23.05
2019-04-10T05:36:15.345Z,21.25
2019-04-10T05:37:21.204Z,21.50
2019-04-10T05:38:26.987Z,19.60
2019-04-10T05:39:40.612Z,20.30
2019-04-10T05:40:38.407Z,17.10
2019-04-10T05:41:43.839Z,15.80
2019-04-10T05:42:49.136Z,15.93
2019-04-10T05:43:53.559Z,16.77
2019-04-10T05:44:58.686Z,16.77
2019-04-10T05:46:03.157Z,16.40
2019-04-10T05:47:07.615Z,15.10
2019-04-10T05:48:12.094Z,16.05
2019-04-10T05:49:17.097Z,15.88
2019-04-10T05:50:21.622Z,15.70
2019-04-10T05:51:26.060Z,19.20
2019-04-10T05:52:30.927Z,18.02
2019-04-10T05:53:36.478Z,19.60
2019-04-10T05:54:41.654Z,16.10
2019-04-10T05:55:47.224Z,14.35
2019-04-10T05:56:52.562Z,14.35
2019-04-10T05:57:58.025Z,15.35
2019-04-10T05:59:03.056Z,14.78
2019-04-10T06:00:09.019Z,16.93
2019-04-10T06:01:13.589Z,16.77
2019-04-10T06:02:18.124Z,15.80
2019-04-10T06:03:22.754Z,16.40
2019-04-10T06:04:27.518Z,17.07
2019-04-10T06:05:32.143Z,16.57
2019-04-10T06:06:36.728Z,15.78
2019-04-10T06:07:41.379Z,27.10
2019-04-10T06:08:46.972Z,18.80
2019-04-10T06:09:55.939Z,17.10
2019-04-10T06:10:58.221Z,15.85
2019-04-10T06:12:04.124Z,16.75
2019-04-10T06:13:08.957Z,15.80
2019-04-10T06:14:13.592Z,15.53
2019-04-10T06:15:19.103Z,15.50
2019-04-10T06:16:24.015Z,15.45
2019-04-10T06:17:28.505Z,16.65
2019-04-10T06:18:33.344Z,16.30
2019-04-10T06:19:37.828Z,23.50
2019-04-10T06:20:45.424Z,17.27
2019-04-10T06:21:50.390Z,23.98
2019-04-10T06:22:57.649Z,17.07
2019-04-10T06:24:03.618Z,16.48
2019-04-10T06:25:11.118Z,17.60
2019-04-10T06:26:16.490Z,16.40
2019-04-10T06:27:20.921Z,17.98
2019-04-10T06:28:26.208Z,19.85
2019-04-10T06:29:31.819Z,17.37
2019-04-10T06:30:36.380Z,16.40
2019-04-10T06:31:41.079Z,16.17
2019-04-10T06:32:45.577Z,14.93
2019-04-10T06:33:51.329Z,21.87
2019-04-10T06:34:56.068Z,17.98
2019-04-10T06:36:00.890Z,18.73
2019-04-10T06:37:06.379Z,19.95
2019-04-10T06:38:10.862Z,18.92
2019-04-10T06:39:16.361Z,17.62
2019-04-10T06:40:24.228Z,16.82
2019-04-10T06:41:27.443Z,17.20
2019-04-10T06:42:44.385Z,16.25
2019-04-10T06:43:39.046Z,16.85
2019-04-10T06:44:44.553Z,17.17
2019-04-10T06:45:49.022Z,17.35
2019-04-10T06:46:53.561Z,21.57
2019-04-10T06:47:58.478Z,20.23
2019-04-10T06:49:05.597Z,19.25
2019-04-10T06:50:12.811Z,18.55
2019-04-10T06:51:19.594Z,17.52
2019-04-10T06:52:24.094Z,19.32
2019-04-10T06:53:29.461Z,42.35
2019-04-10T06:54:34.231Z,17.57
2019-04-10T06:55:38.979Z,17.37
2019-04-10T06:56:43.444Z,18.55
2019-04-10T06:57:54.419Z,21.62
2019-04-10T06:58:58.255Z,17.74
2019-04-10T07:00:04.245Z,17.50
2019-04-10T07:01:10.478Z,19.65
2019-04-10T07:02:23.715Z,17.90
2019-04-10T07:03:21.179Z,16.37
2019-04-10T07:04:26.605Z,17.67
2019-04-10T07:05:37.979Z,19.77
2019-04-10T07:06:50.004Z,14.75
2019-04-10T07:07:51.416Z,13.93
2019-04-10T07:08:51.438Z,15.15
2019-04-10T07:09:57.132Z,15.35
2019-04-10T07:11:08.715Z,14.78
2019-04-10T07:12:10.128Z,14.53
2019-04-10T07:13:15.535Z,15.38
2019-04-10T07:14:20.556Z,15.60
2019-04-10T07:15:25.677Z,18.00
2019-04-10T07:16:32.618Z,17.45
2019-04-10T07:17:40.339Z,15.72
2019-04-10T07:18:49.013Z,15.88
2019-04-10T07:19:53.447Z,13.90
2019-04-10T07:21:00.798Z,14.00
2019-04-10T07:22:08.852Z,14.47
2019-04-10T07:23:14.131Z,16.45
2019-04-10T07:24:18.830Z,15.63
2019-04-10T07:25:23.792Z,13.60
2019-04-10T07:26:37.967Z,14.75
2019-04-10T07:27:36.952Z,15.68
2019-04-10T07:28:45.660Z,16.37
2019-04-10T07:29:51.246Z,13.65
2019-04-10T07:31:00.336Z,18.10
2019-04-10T07:32:04.810Z,14.73
2019-04-10T07:33:08.354Z,14.85
2019-04-10T07:34:13.046Z,15.13
2019-04-10T07:35:21.442Z,13.13
2019-04-10T07:36:24.522Z,15.75
2019-04-10T07:37:29.335Z,15.60
2019-04-10T07:38:34.982Z,13.32
2019-04-10T07:39:39.609Z,12.95
2019-04-10T07:40:45.233Z,13.53
2019-04-10T07:41:49.983Z,15.50
2019-04-10T07:42:54.612Z,12.43
2019-04-10T07:43:59.089Z,14.05
2019-04-10T07:45:04.687Z,12.63
2019-04-10T07:46:09.164Z,13.70
2019-04-10T07:47:13.625Z,11.40
2019-04-10T07:48:18.474Z,13.65
2019-04-10T07:49:27.431Z,11.48
2019-04-10T07:50:30.270Z,11.08
2019-04-10T07:51:34.713Z,10.63
2019-04-10T07:52:39.266Z,10.53
2019-04-10T07:53:44.871Z,10.50
2019-04-10T07:54:50.327Z,10.28
2019-04-10T07:56:02.338Z,10.98
2019-04-10T07:57:02.063Z,11.38
2019-04-10T07:58:06.918Z,11.18
2019-04-10T07:59:11.420Z,9.80
2019-04-10T08:00:16.421Z,10.78
2019-04-10T08:01:22.097Z,12.33
2019-04-10T08:02:27.594Z,9.78
2019-04-10T08:03:33.097Z,14.70
2019-04-10T08:04:37.974Z,10.72
2019-04-10T08:05:43.925Z,9.08
2019-04-10T08:06:50.148Z,8.50
2019-04-10T08:08:15.460Z,9.80
2019-04-10T08:09:20.991Z,8.75
2019-04-10T08:10:26.419Z,10.23
2019-04-10T08:11:31.647Z,9.93
2019-04-10T08:12:44.916Z,9.28
2019-04-10T08:13:42.747Z,8.93
2019-04-10T08:14:47.144Z,8.05
2019-04-10T08:15:52.238Z,9.05
2019-04-10T08:16:57.392Z,7.97
2019-04-10T08:18:02.601Z,11.00
2019-04-10T08:19:08.180Z,15.15
2019-04-10T08:20:13.325Z,10.10
2019-04-10T08:21:18.232Z,8.85
2019-04-10T08:22:22.684Z,9.13
2019-04-10T08:23:28.134Z,7.62
2019-04-10T08:24:32.968Z,8.20
2019-04-10T08:25:38.719Z,8.18
2019-04-10T08:26:43.265Z,7.25
2019-04-10T08:27:47.797Z,8.43
2019-04-10T08:28:53.731Z,8.70
2019-04-10T08:29:59.080Z,8.70
2019-04-10T08:31:04.387Z,8.23
2019-04-10T08:32:09.890Z,9.98
2019-04-10T08:33:14.326Z,8.30
2019-04-10T08:34:21.617Z,12.58
2019-04-10T08:35:27.314Z,7.67
2019-04-10T08:36:31.961Z,8.70
2019-04-10T08:37:36.875Z,8.05
2019-04-10T08:38:42.813Z,7.40
2019-04-10T08:39:49.163Z,8.63
2019-04-10T08:40:54.401Z,12.03
2019-04-10T08:42:00.072Z,10.80
2019-04-10T08:43:04.485Z,9.83
2019-04-10T08:44:08.945Z,8.53
2019-04-10T08:45:13.462Z,8.28
2019-04-10T08:46:18.013Z,10.00
2019-04-10T08:47:22.755Z,10.25
2019-04-10T08:48:29.985Z,9.53
2019-04-10T08:49:33.374Z,12.82
2019-04-10T08:50:38.550Z,9.95
2019-04-10T08:51:43.658Z,8.30
2019-04-10T08:52:48.709Z,7.78
2019-04-10T08:53:58.450Z,7.33
2019-04-10T08:55:06.262Z,8.13
2019-04-10T08:56:10.974Z,7.28
2019-04-10T08:57:30.518Z,8.23
2019-04-10T08:58:39.577Z,8.18
2019-04-10T08:59:46.814Z,8.05
2019-04-10T09:00:52.617Z,7.22
2019-04-10T09:01:57.757Z,7.35
2019-04-10T09:03:02.509Z,10.20
2019-04-10T09:04:07.788Z,8.50
2019-04-10T09:05:13.280Z,7.40
2019-04-10T09:06:18.121Z,7.95
2019-04-10T09:07:22.597Z,7.47
2019-04-10T09:08:27.046Z,7.22
2019-04-10T09:09:31.908Z,7.47
2019-04-10T09:10:36.615Z,6.97
2019-04-10T09:11:41.095Z,7.40
2019-04-10T09:12:45.556Z,7.40
2019-04-10T09:13:50.015Z,8.25
2019-04-10T09:14:54.469Z,7.92
2019-04-10T09:15:58.932Z,8.38
2019-04-10T09:17:03.413Z,10.00
2019-04-10T09:18:08.545Z,10.28
2019-04-10T09:19:14.027Z,7.92
2019-04-10T09:20:18.495Z,9.30
2019-04-10T09:21:23.698Z,8.25
2019-04-10T09:22:30.104Z,10.88
2019-04-10T09:23:42.572Z,8.35
2019-04-10T09:24:40.613Z,7.35
2019-04-10T09:25:45.063Z,7.97
2019-04-10T09:26:50.832Z,7.58
2019-04-10T09:27:55.435Z,7.87
2019-04-10T09:29:00.184Z,7.17
2019-04-10T09:30:08.728Z,7.62
2019-04-10T09:31:13.597Z,8.18
2019-04-10T09:32:18.179Z,7.85
2019-04-10T09:33:27.483Z,8.28
2019-04-10T09:34:29.070Z,8.23
2019-04-10T09:35:33.595Z,7.60
2019-04-10T09:36:38.082Z,11.48
2019-04-10T09:37:43.054Z,10.85
2019-04-10T09:38:47.546Z,8.68
2019-04-10T09:39:53.535Z,7.95
2019-04-10T09:40:58.807Z,7.60
2019-04-10T09:42:03.480Z,7.35
2019-04-10T09:43:09.228Z,8.48
2019-04-10T09:44:14.456Z,7.92
2019-04-10T09:45:19.952Z,7.37
2019-04-10T09:46:24.788Z,8.25
2019-04-10T09:47:30.346Z,8.85
2019-04-10T09:48:35.860Z,8.33
2019-04-10T09:49:45.820Z,8.78
2019-04-10T09:50:48.061Z,9.40
2019-04-10T09:51:53.029Z,9.08
2019-04-10T09:52:57.488Z,9.55
2019-04-10T09:54:01.953Z,8.05
2019-04-10T09:55:07.706Z,8.93
2019-04-10T09:56:12.178Z,7.92
2019-04-10T09:57:17.842Z,8.53
2019-04-10T09:58:22.678Z,11.15
2019-04-10T09:59:35.850Z,9.50
2019-04-10T10:00:34.064Z,11.45
2019-04-10T10:01:38.512Z,9.80
2019-04-10T10:02:43.156Z,7.60
2019-04-10T10:03:48.690Z,8.78
2019-04-10T10:04:53.630Z,9.23
2019-04-10T10:06:00.090Z,7.47
2019-04-10T10:07:04.617Z,10.05
2019-04-10T10:08:09.191Z,9.03
2019-04-10T10:09:14.817Z,10.15
2019-04-10T10:10:20.546Z,8.88
2019-04-10T10:11:27.119Z,9.75
2019-04-10T10:12:32.219Z,10.65
2019-04-10T10:13:37.383Z,9.43
2019-04-10T10:14:42.249Z,8.10
2019-04-10T10:15:46.890Z,11.90
2019-04-10T10:16:52.513Z,10.90
2019-04-10T10:17:57.175Z,12.25
2019-04-10T10:19:01.761Z,10.08
2019-04-10T10:20:08.630Z,8.25
2019-04-10T10:21:13.082Z,7.60
2019-04-10T10:22:17.542Z,8.93
2019-04-10T10:23:22.069Z,7.83
2019-04-10T10:24:28.767Z,7.08
2019-04-10T10:25:33.369Z,7.90
2019-04-10T10:26:37.822Z,7.95
2019-04-10T10:27:42.697Z,7.25
2019-04-10T10:28:47.526Z,7.78
2019-04-10T10:29:53.539Z,10.38
2019-04-10T10:30:58.211Z,8.65
2019-04-10T10:32:02.660Z,7.53
2019-04-10T10:33:07.809Z,8.50
2019-04-10T10:34:12.722Z,8.10
2019-04-10T10:35:18.815Z,7.75
2019-04-10T10:36:34.618Z,7.37
2019-04-10T10:37:30.493Z,7.78
2019-04-10T10:38:35.026Z,8.13
2019-04-10T10:39:39.483Z,7.78
2019-04-10T10:40:44.868Z,8.00
2019-04-10T10:41:49.389Z,7.92
2019-04-10T10:42:54.769Z,7.30
2019-04-10T10:44:00.672Z,7.33
2019-04-10T10:45:07.775Z,7.80
2019-04-10T10:46:13.379Z,7.40
2019-04-10T10:47:17.959Z,8.33
2019-04-10T10:48:22.378Z,7.55
2019-04-10T10:49:28.593Z,7.10
2019-04-10T10:50:33.216Z,7.83
2019-04-10T10:51:37.632Z,7.78
2019-04-10T10:52:42.093Z,10.93
2019-04-10T10:53:46.580Z,9.65
2019-04-10T10:54:51.437Z,9.65
2019-04-10T10:55:56.097Z,7.42
2019-04-10T10:57:00.610Z,9.30
2019-04-10T10:58:06.021Z,6.83
2019-04-10T10:59:11.325Z,7.40
2019-04-10T11:00:17.126Z,6.92
2019-04-10T11:01:22.116Z,7.12
2019-04-10T11:02:27.703Z,6.85
2019-04-10T11:03:32.259Z,7.47
2019-04-10T11:04:37.749Z,6.78
2019-04-10T11:05:42.431Z,6.62
2019-04-10T11:06:53.987Z,7.95
2019-04-10T11:07:53.168Z,6.95
2019-04-10T11:08:57.827Z,7.30
2019-04-10T11:10:02.835Z,7.67
2019-04-10T11:11:08.692Z,6.72
2019-04-10T11:12:13.607Z,8.05
2019-04-10T11:13:18.904Z,7.30
2019-04-10T11:14:23.868Z,6.37
2019-04-10T11:15:28.392Z,6.72
2019-04-10T11:16:33.914Z,6.20
2019-04-10T11:17:40.448Z,5.90
2019-04-10T11:18:45.064Z,6.62
2019-04-10T11:19:51.289Z,5.97
2019-04-10T11:21:00.955Z,6.65
2019-04-10T11:22:02.725Z,7.33
2019-04-10T11:23:07.334Z,7.30
2019-04-10T11:24:13.401Z,8.85
2019-04-10T11:25:18.160Z,6.87
2019-04-10T11:26:24.160Z,6.67
2019-04-10T11:27:29.406Z,6.58
2019-04-10T11:28:34.972Z,7.50
2019-04-10T11:29:40.796Z,6.55
2019-04-10T11:30:47.280Z,7.65
2019-04-10T11:31:53.625Z,7.15
2019-04-10T11:32:58.343Z,7.65
2019-04-10T11:34:04.111Z,8.63
2019-04-10T11:35:08.982Z,9.20
2019-04-10T11:36:15.138Z,7.12
2019-04-10T11:37:32.110Z,7.42
2019-04-10T11:38:27.230Z,8.63
2019-04-10T11:39:35.129Z,9.80
2019-04-10T11:40:38.881Z,8.05
2019-04-10T11:41:43.433Z,9.45
2019-04-10T11:42:47.863Z,8.75
2019-04-10T11:43:53.353Z,7.47
2019-04-10T11:44:59.336Z,7.95
2019-04-10T11:46:05.657Z,7.67
2019-04-10T11:47:10.597Z,6.75
2019-04-10T11:48:18.307Z,6.40
2019-04-10T11:49:23.085Z,8.58
2019-04-10T11:50:29.794Z,9.10
2019-04-10T11:51:36.749Z,7.78
2019-04-10T11:52:48.013Z,7.25
2019-04-10T11:53:50.833Z,8.43
2019-04-10T11:55:00.495Z,8.08
2019-04-10T11:56:00.135Z,7.15
2019-04-10T11:57:06.842Z,7.35
2019-04-10T11:58:14.541Z,6.85
2019-04-10T11:59:21.609Z,7.95
2019-04-10T12:00:50.400Z,7.80
2019-04-10T12:02:00.966Z,9.23
2019-04-10T12:03:08.327Z,9.68
2019-04-10T12:04:11.365Z,8.28
2019-04-10T12:05:20.242Z,6.78
2019-04-10T12:06:29.318Z,9.50
2019-04-10T12:09:03.766Z,7.85
2019-04-10T12:11:08.832Z,7.62
2019-04-10T12:11:57.334Z,7.62
2019-04-10T12:13:01.958Z,7.70
2019-04-10T12:14:07.577Z,7.62
2019-04-10T12:15:12.343Z,6.87
2019-04-10T12:16:16.872Z,7.45
2019-04-10T12:17:22.158Z,6.90
2019-04-10T12:18:26.797Z,7.10
2019-04-10T12:19:31.295Z,7.67
2019-04-10T12:20:35.823Z,8.18
2019-04-10T12:21:40.661Z,9.05
2019-04-10T12:22:46.153Z,9.58
2019-04-10T12:23:51.499Z,7.53
2019-04-10T12:24:56.434Z,8.65
2019-04-10T12:26:01.264Z,8.73
2019-04-10T12:27:06.497Z,6.95
2019-04-10T12:28:11.705Z,8.88
2019-04-10T12:29:18.268Z,8.68
2019-04-10T12:30:23.528Z,8.55
2019-04-10T12:31:28.313Z,8.28
2019-04-10T12:32:32.766Z,9.68
2019-04-10T12:33:38.013Z,10.70
2019-04-10T12:34:42.519Z,7.92
2019-04-10T12:35:47.759Z,7.65
2019-04-10T12:36:53.376Z,7.47
2019-04-10T12:38:02.845Z,7.35
2019-04-10T12:39:05.822Z,7.60
2019-04-10T12:40:11.865Z,7.50
2019-04-10T12:41:17.304Z,7.80
2019-04-10T12:42:23.875Z,9.08
2019-04-10T12:43:29.260Z,9.15
2019-04-10T12:44:33.855Z,8.15
2019-04-10T12:45:38.378Z,7.05
2019-04-10T12:46:43.559Z,7.05
2019-04-10T12:47:48.130Z,7.72
2019-04-10T12:48:52.768Z,7.78
2019-04-10T12:49:58.245Z,9.40
2019-04-10T12:51:03.475Z,11.65
2019-04-10T12:52:08.096Z,8.93
2019-04-10T12:53:13.580Z,7.67
2019-04-10T12:54:18.064Z,7.75
2019-04-10T12:55:22.543Z,11.08
2019-04-10T12:56:27.001Z,11.30
2019-04-10T12:57:31.798Z,7.10
2019-04-10T12:58:37.105Z,8.28
2019-04-10T12:59:41.758Z,7.35
2019-04-10T13:00:47.932Z,7.65
2019-04-10T13:01:53.900Z,8.75
2019-04-10T13:02:58.708Z,9.40
2019-04-10T13:04:03.438Z,8.75
2019-04-10T13:05:09.085Z,8.83
2019-04-10T13:06:13.882Z,8.73
2019-04-10T13:07:19.178Z,10.80
2019-04-10T13:08:31.162Z,8.00
2019-04-10T13:09:29.874Z,6.87
2019-04-10T13:10:34.332Z,6.33
2019-04-10T13:11:40.619Z,9.65
2019-04-10T13:12:45.280Z,8.03
2019-04-10T13:13:51.142Z,8.80
2019-04-10T13:14:57.009Z,7.40
2019-04-10T13:16:01.598Z,14.07
2019-04-10T13:17:06.764Z,9.08
2019-04-10T13:18:12.104Z,7.72
2019-04-10T13:19:16.663Z,7.00
2019-04-10T13:20:21.901Z,6.20
2019-04-10T13:21:26.487Z,7.70
2019-04-10T13:22:31.800Z,11.25
2019-04-10T13:23:37.008Z,7.65
2019-04-10T13:24:43.779Z,6.42
2019-04-10T13:25:55.452Z,6.62
2019-04-10T13:26:55.220Z,6.30
2019-04-10T13:28:01.628Z,8.88
2019-04-10T13:29:10.457Z,8.30
2019-04-10T13:30:14.982Z,7.10
2019-04-10T13:31:19.846Z,7.90
2019-04-10T13:32:24.303Z,8.08
2019-04-10T13:33:28.914Z,6.65
2019-04-10T13:34:33.881Z,6.97
2019-04-10T13:35:38.715Z,6.40
2019-04-10T13:36:43.918Z,6.75
2019-04-10T13:37:48.542Z,6.42
2019-04-10T13:38:54.794Z,6.85
2019-04-10T13:39:59.388Z,6.53
2019-04-10T13:41:04.112Z,6.42
2019-04-10T13:42:09.922Z,6.50
2019-04-10T13:43:14.391Z,6.40
2019-04-10T13:44:18.861Z,6.60
2019-04-10T13:45:23.619Z,6.95
2019-04-10T13:46:28.960Z,6.95
2019-04-10T13:47:34.393Z,5.58
2019-04-10T13:48:39.712Z,6.15
2019-04-10T13:49:44.276Z,6.92
2019-04-10T13:50:48.786Z,6.17
2019-04-10T13:51:53.971Z,6.00
2019-04-10T13:53:01.722Z,6.60
2019-04-10T13:54:10.381Z,6.30
2019-04-10T13:55:18.956Z,6.20
2019-04-10T13:56:25.268Z,6.58
2019-04-10T13:57:30.641Z,6.17
2019-04-10T13:58:35.197Z,6.40
2019-04-10T13:59:39.679Z,6.45
2019-04-10T14:00:45.120Z,6.60
2019-04-10T14:01:50.213Z,6.58
2019-04-10T14:02:56.263Z,6.58
2019-04-10T14:04:02.929Z,6.80
2019-04-10T14:05:11.514Z,6.35
2019-04-10T14:06:17.214Z,6.28
2019-04-10T14:07:22.130Z,8.38
2019-04-10T14:08:40.313Z,7.35
2019-04-10T14:09:41.430Z,7.53
2019-04-10T14:10:41.224Z,7.70
2019-04-10T14:11:45.724Z,9.30
2019-04-10T14:12:51.402Z,6.42
2019-04-10T14:13:56.319Z,6.55
2019-04-10T14:15:01.537Z,7.35
2019-04-10T14:16:07.177Z,6.95